sensor_id;sensor_type;location;lat;lon;timestamp;P1;durP1;ratioP1;P2;durP2;ratioP2
39140;SDS011;24875;48.436;10.298;2022-07-26T00:01:38;8.20;;;3.00;;
39140;SDS011;24875;48.436;10.298;2022-07-26T00:04:04;9.50;;;2.80;;
39140;SDS011;24875;48.436;10.298;2022-07-26T00:06:31;6.07;;;2.55;;
39140;SDS011;24875;48.436;10.298;2022-07-26T00:08:58;5.00;;;2.90;;
39140;SDS011;24875;48.436;10.298;2022-07-26T00:11:25;7.43;;;3.05;;
39140;SDS011;24875;48.436;10.298;2022-07-26T00:13:53;9.38;;;2.80;;
39140;SDS011;24875;48.436;10.298;2022-07-26T00:16:19;5.32;;;2.60;;
39140;SDS011;24875;48.436;10.298;2022-07-26T00:18:47;4.88;;;2.55;;
39140;SDS011;24875;48.436;10.298;2022-07-26T00:21:14;4.63;;;2.58;;
39140;SDS011;24875;48.436;10.298;2022-07-26T00:23:40;5.85;;;2.60;;
39140;SDS011;24875;48.436;10.298;2022-07-26T00:26:07;6.15;;;3.15;;
39140;SDS011;24875;48.436;10.298;2022-07-26T00:28:33;5.32;;;3.10;;
39140;SDS011;24875;48.436;10.298;2022-07-26T00:31:00;5.55;;;2.78;;
39140;SDS011;24875;48.436;10.298;2022-07-26T00:33:26;6.97;;;2.65;;
39140;SDS011;24875;48.436;10.298;2022-07-26T00:35:54;6.00;;;2.80;;
39140;SDS011;24875;48.436;10.298;2022-07-26T00:38:21;8.35;;;3.10;;
39140;SDS011;24875;48.436;10.298;2022-07-26T00:40:47;4.95;;;2.55;;
39140;SDS011;24875;48.436;10.298;2022-07-26T00:43:14;9.63;;;2.63;;
39140;SDS011;24875;48.436;10.298;2022-07-26T00:45:40;7.50;;;2.63;;
39140;SDS011;24875;48.436;10.298;2022-07-26T00:48:07;3.17;;;2.20;;
39140;SDS011;24875;48.436;10.298;2022-07-26T00:50:34;4.15;;;2.55;;
39140;SDS011;24875;48.436;10.298;2022-07-26T00:53:02;6.32;;;2.33;;
39140;SDS011;24875;48.436;10.298;2022-07-26T00:55:28;9.45;;;3.00;;
39140;SDS011;24875;48.436;10.298;2022-07-26T00:57:55;7.72;;;2.83;;
39140;SDS011;24875;48.436;10.298;2022-07-26T01:00:23;6.57;;;2.45;;
39140;SDS011;24875;48.436;10.298;2022-07-26T01:02:51;10.45;;;2.53;;
39140;SDS011;24875;48.436;10.298;2022-07-26T01:05:18;5.05;;;2.70;;
39140;SDS011;24875;48.436;10.298;2022-07-26T01:07:45;6.70;;;2.65;;
39140;SDS011;24875;48.436;10.298;2022-07-26T01:10:14;6.45;;;2.75;;
39140;SDS011;24875;48.436;10.298;2022-07-26T01:12:41;3.55;;;2.47;;
39140;SDS011;24875;48.436;10.298;2022-07-26T01:15:09;6.88;;;2.78;;
39140;SDS011;24875;48.436;10.298;2022-07-26T01:17:36;4.93;;;2.90;;
39140;SDS011;24875;48.436;10.298;2022-07-26T01:20:04;5.45;;;2.53;;
39140;SDS011;24875;48.436;10.298;2022-07-26T01:22:34;12.05;;;2.70;;
39140;SDS011;24875;48.436;10.298;2022-07-26T01:25:00;5.65;;;2.38;;
39140;SDS011;24875;48.436;10.298;2022-07-26T01:27:27;6.78;;;2.78;;
39140;SDS011;24875;48.436;10.298;2022-07-26T01:29:53;12.27;;;2.85;;
39140;SDS011;24875;48.436;10.298;2022-07-26T01:32:20;4.43;;;2.47;;
39140;SDS011;24875;48.436;10.298;2022-07-26T01:34:46;7.95;;;2.63;;
39140;SDS011;24875;48.436;10.298;2022-07-26T01:37:13;5.05;;;2.90;;
39140;SDS011;24875;48.436;10.298;2022-07-26T01:39:40;8.18;;;2.50;;
39140;SDS011;24875;48.436;10.298;2022-07-26T01:42:08;11.10;;;3.17;;
39140;SDS011;24875;48.436;10.298;2022-07-26T01:44:34;3.47;;;2.20;;
39140;SDS011;24875;48.436;10.298;2022-07-26T01:47:01;6.57;;;3.08;;
39140;SDS011;24875;48.436;10.298;2022-07-26T01:49:27;6.25;;;2.60;;
39140;SDS011;24875;48.436;10.298;2022-07-26T01:51:54;11.13;;;2.20;;
39140;SDS011;24875;48.436;10.298;2022-07-26T01:54:20;6.22;;;2.60;;
39140;SDS011;24875;48.436;10.298;2022-07-26T01:56:48;5.45;;;2.58;;
39140;SDS011;24875;48.436;10.298;2022-07-26T01:59:14;4.95;;;2.50;;
39140;SDS011;24875;48.436;10.298;2022-07-26T02:01:41;5.85;;;2.20;;
39140;SDS011;24875;48.436;10.298;2022-07-26T02:04:07;3.35;;;2.25;;
39140;SDS011;24875;48.436;10.298;2022-07-26T02:06:54;4.93;;;2.13;;
39140;SDS011;24875;48.436;10.298;2022-07-26T02:09:20;2.85;;;2.10;;
39140;SDS011;24875;48.436;10.298;2022-07-26T02:11:48;5.43;;;2.10;;
39140;SDS011;24875;48.436;10.298;2022-07-26T02:14:14;5.97;;;2.55;;
39140;SDS011;24875;48.436;10.298;2022-07-26T02:16:41;5.95;;;2.58;;
39140;SDS011;24875;48.436;10.298;2022-07-26T02:19:08;3.53;;;1.98;;
39140;SDS011;24875;48.436;10.298;2022-07-26T02:21:34;3.05;;;1.90;;
39140;SDS011;24875;48.436;10.298;2022-07-26T02:24:01;3.53;;;2.22;;
39140;SDS011;24875;48.436;10.298;2022-07-26T02:26:27;7.80;;;2.38;;
39140;SDS011;24875;48.436;10.298;2022-07-26T02:28:55;5.72;;;1.88;;
39140;SDS011;24875;48.436;10.298;2022-07-26T02:31:21;4.00;;;2.00;;
39140;SDS011;24875;48.436;10.298;2022-07-26T02:33:48;11.48;;;2.13;;
39140;SDS011;24875;48.436;10.298;2022-07-26T02:36:14;6.22;;;1.90;;
39140;SDS011;24875;48.436;10.298;2022-07-26T02:38:41;2.50;;;2.00;;
39140;SDS011;24875;48.436;10.298;2022-07-26T02:41:07;8.05;;;2.28;;
39140;SDS011;24875;48.436;10.298;2022-07-26T02:43:34;4.30;;;1.88;;
39140;SDS011;24875;48.436;10.298;2022-07-26T02:46:01;5.25;;;2.00;;
39140;SDS011;24875;48.436;10.298;2022-07-26T02:48:28;3.10;;;1.80;;
39140;SDS011;24875;48.436;10.298;2022-07-26T02:50:55;4.38;;;1.85;;
39140;SDS011;24875;48.436;10.298;2022-07-26T02:53:21;4.20;;;1.70;;
39140;SDS011;24875;48.436;10.298;2022-07-26T02:55:48;4.63;;;1.83;;
39140;SDS011;24875;48.436;10.298;2022-07-26T02:58:14;3.63;;;1.98;;
39140;SDS011;24875;48.436;10.298;2022-07-26T03:00:40;3.55;;;1.75;;
39140;SDS011;24875;48.436;10.298;2022-07-26T03:03:08;3.75;;;1.70;;
39140;SDS011;24875;48.436;10.298;2022-07-26T03:05:38;8.93;;;2.03;;
39140;SDS011;24875;48.436;10.298;2022-07-26T03:08:05;4.85;;;1.85;;
39140;SDS011;24875;48.436;10.298;2022-07-26T03:10:32;2.97;;;1.80;;
39140;SDS011;24875;48.436;10.298;2022-07-26T03:12:58;2.90;;;1.60;;
39140;SDS011;24875;48.436;10.298;2022-07-26T03:15:25;4.22;;;1.80;;
39140;SDS011;24875;48.436;10.298;2022-07-26T03:17:51;5.82;;;1.70;;
39140;SDS011;24875;48.436;10.298;2022-07-26T03:20:20;2.70;;;1.55;;
39140;SDS011;24875;48.436;10.298;2022-07-26T03:22:47;6.03;;;1.75;;
39140;SDS011;24875;48.436;10.298;2022-07-26T03:25:13;6.00;;;1.75;;
39140;SDS011;24875;48.436;10.298;2022-07-26T03:27:40;4.72;;;1.73;;
39140;SDS011;24875;48.436;10.298;2022-07-26T03:30:07;3.33;;;1.70;;
39140;SDS011;24875;48.436;10.298;2022-07-26T03:32:35;3.90;;;1.70;;
39140;SDS011;24875;48.436;10.298;2022-07-26T03:35:02;1.90;;;1.63;;
39140;SDS011;24875;48.436;10.298;2022-07-26T03:37:30;3.90;;;1.70;;
39140;SDS011;24875;48.436;10.298;2022-07-26T03:39:56;4.78;;;1.92;;
39140;SDS011;24875;48.436;10.298;2022-07-26T03:42:23;4.30;;;1.63;;
39140;SDS011;24875;48.436;10.298;2022-07-26T03:44:49;7.63;;;1.88;;
39140;SDS011;24875;48.436;10.298;2022-07-26T03:47:16;5.70;;;1.98;;
39140;SDS011;24875;48.436;10.298;2022-07-26T03:49:42;5.70;;;1.95;;
39140;SDS011;24875;48.436;10.298;2022-07-26T03:52:09;2.97;;;1.60;;
39140;SDS011;24875;48.436;10.298;2022-07-26T03:54:37;2.95;;;1.48;;
39140;SDS011;24875;48.436;10.298;2022-07-26T03:57:03;5.00;;;1.60;;
39140;SDS011;24875;48.436;10.298;2022-07-26T03:59:29;5.78;;;2.22;;
39140;SDS011;24875;48.436;10.298;2022-07-26T04:01:55;4.22;;;1.80;;
39140;SDS011;24875;48.436;10.298;2022-07-26T04:04:22;2.80;;;1.50;;
39140;SDS011;24875;48.436;10.298;2022-07-26T04:06:48;3.65;;;1.45;;
39140;SDS011;24875;48.436;10.298;2022-07-26T04:09:15;7.25;;;1.80;;
39140;SDS011;24875;48.436;10.298;2022-07-26T04:11:43;3.58;;;1.70;;
39140;SDS011;24875;48.436;10.298;2022-07-26T04:14:09;2.88;;;1.50;;
39140;SDS011;24875;48.436;10.298;2022-07-26T04:16:37;5.53;;;1.70;;
39140;SDS011;24875;48.436;10.298;2022-07-26T04:19:03;6.40;;;1.73;;
39140;SDS011;24875;48.436;10.298;2022-07-26T04:21:30;2.95;;;1.85;;
39140;SDS011;24875;48.436;10.298;2022-07-26T04:23:56;4.93;;;2.20;;
39140;SDS011;24875;48.436;10.298;2022-07-26T04:26:23;7.55;;;1.73;;
39140;SDS011;24875;48.436;10.298;2022-07-26T04:29:06;3.70;;;1.77;;
39140;SDS011;24875;48.436;10.298;2022-07-26T04:31:32;3.05;;;1.48;;
39140;SDS011;24875;48.436;10.298;2022-07-26T04:33:59;3.95;;;1.60;;
39140;SDS011;24875;48.436;10.298;2022-07-26T04:36:25;2.65;;;1.50;;
39140;SDS011;24875;48.436;10.298;2022-07-26T04:38:52;4.07;;;1.52;;
39140;SDS011;24875;48.436;10.298;2022-07-26T04:41:18;2.63;;;1.52;;
39140;SDS011;24875;48.436;10.298;2022-07-26T04:43:45;3.50;;;1.67;;
39140;SDS011;24875;48.436;10.298;2022-07-26T04:46:12;6.25;;;1.50;;
39140;SDS011;24875;48.436;10.298;2022-07-26T04:48:39;5.75;;;1.98;;
39140;SDS011;24875;48.436;10.298;2022-07-26T04:51:05;1.65;;;1.40;;
39140;SDS011;24875;48.436;10.298;2022-07-26T04:53:32;2.92;;;1.52;;
39140;SDS011;24875;48.436;10.298;2022-07-26T04:55:58;7.25;;;1.70;;
39140;SDS011;24875;48.436;10.298;2022-07-26T04:58:25;4.40;;;1.77;;
39140;SDS011;24875;48.436;10.298;2022-07-26T05:00:51;3.95;;;1.50;;
39140;SDS011;24875;48.436;10.298;2022-07-26T05:03:19;4.93;;;1.80;;
39140;SDS011;24875;48.436;10.298;2022-07-26T05:05:49;5.30;;;1.48;;
39140;SDS011;24875;48.436;10.298;2022-07-26T05:08:15;3.42;;;1.65;;
39140;SDS011;24875;48.436;10.298;2022-07-26T05:10:41;2.65;;;1.40;;
39140;SDS011;24875;48.436;10.298;2022-07-26T05:13:08;6.35;;;1.55;;
39140;SDS011;24875;48.436;10.298;2022-07-26T05:15:35;7.13;;;1.77;;
39140;SDS011;24875;48.436;10.298;2022-07-26T05:18:02;2.22;;;1.65;;
39140;SDS011;24875;48.436;10.298;2022-07-26T05:20:31;1.45;;;1.30;;
39140;SDS011;24875;48.436;10.298;2022-07-26T05:22:58;2.83;;;1.67;;
39140;SDS011;24875;48.436;10.298;2022-07-26T05:25:25;5.22;;;1.88;;
39140;SDS011;24875;48.436;10.298;2022-07-26T05:27:52;9.48;;;1.63;;
39140;SDS011;24875;48.436;10.298;2022-07-26T05:30:19;3.35;;;1.52;;
39140;SDS011;24875;48.436;10.298;2022-07-26T05:32:45;2.78;;;1.33;;
39140;SDS011;24875;48.436;10.298;2022-07-26T05:35:12;3.80;;;1.48;;
39140;SDS011;24875;48.436;10.298;2022-07-26T05:37:40;2.33;;;1.30;;
39140;SDS011;24875;48.436;10.298;2022-07-26T05:40:07;3.72;;;1.27;;
39140;SDS011;24875;48.436;10.298;2022-07-26T05:42:35;2.08;;;1.20;;
39140;SDS011;24875;48.436;10.298;2022-07-26T05:45:01;2.13;;;1.33;;
39140;SDS011;24875;48.436;10.298;2022-07-26T05:47:28;3.55;;;1.70;;
39140;SDS011;24875;48.436;10.298;2022-07-26T05:49:55;5.70;;;1.60;;
39140;SDS011;24875;48.436;10.298;2022-07-26T05:52:22;2.22;;;1.20;;
39140;SDS011;24875;48.436;10.298;2022-07-26T05:54:50;4.28;;;1.27;;
39140;SDS011;24875;48.436;10.298;2022-07-26T05:57:16;2.00;;;1.13;;
39140;SDS011;24875;48.436;10.298;2022-07-26T05:59:43;2.53;;;1.10;;
39140;SDS011;24875;48.436;10.298;2022-07-26T06:02:09;5.55;;;1.23;;
39140;SDS011;24875;48.436;10.298;2022-07-26T06:04:35;3.58;;;1.50;;
39140;SDS011;24875;48.436;10.298;2022-07-26T06:07:02;2.08;;;1.30;;
39140;SDS011;24875;48.436;10.298;2022-07-26T06:09:29;2.85;;;1.40;;
39140;SDS011;24875;48.436;10.298;2022-07-26T06:11:57;1.88;;;1.17;;
39140;SDS011;24875;48.436;10.298;2022-07-26T06:14:23;2.08;;;1.27;;
39140;SDS011;24875;48.436;10.298;2022-07-26T06:16:50;3.40;;;1.20;;
39140;SDS011;24875;48.436;10.298;2022-07-26T06:19:16;1.73;;;1.20;;
39140;SDS011;24875;48.436;10.298;2022-07-26T06:21:43;4.10;;;1.63;;
39140;SDS011;24875;48.436;10.298;2022-07-26T06:24:10;2.17;;;1.38;;
39140;SDS011;24875;48.436;10.298;2022-07-26T06:26:37;2.15;;;1.40;;
39140;SDS011;24875;48.436;10.298;2022-07-26T06:29:05;2.45;;;1.40;;
39140;SDS011;24875;48.436;10.298;2022-07-26T06:31:31;1.55;;;1.15;;
39140;SDS011;24875;48.436;10.298;2022-07-26T06:33:58;2.65;;;1.30;;
39140;SDS011;24875;48.436;10.298;2022-07-26T06:36:24;3.38;;;1.10;;
39140;SDS011;24875;48.436;10.298;2022-07-26T06:38:51;5.38;;;1.30;;
39140;SDS011;24875;48.436;10.298;2022-07-26T06:41:18;2.72;;;1.20;;
39140;SDS011;24875;48.436;10.298;2022-07-26T06:43:45;2.95;;;1.20;;
39140;SDS011;24875;48.436;10.298;2022-07-26T06:46:13;3.10;;;1.20;;
39140;SDS011;24875;48.436;10.298;2022-07-26T06:48:40;3.45;;;1.30;;
39140;SDS011;24875;48.436;10.298;2022-07-26T06:51:07;4.38;;;1.30;;
39140;SDS011;24875;48.436;10.298;2022-07-26T06:53:34;4.78;;;1.10;;
39140;SDS011;24875;48.436;10.298;2022-07-26T06:56:00;2.30;;;1.20;;
39140;SDS011;24875;48.436;10.298;2022-07-26T06:58:27;2.70;;;1.45;;
39140;SDS011;24875;48.436;10.298;2022-07-26T07:00:53;1.85;;;1.20;;
39140;SDS011;24875;48.436;10.298;2022-07-26T07:03:21;8.68;;;1.67;;
39140;SDS011;24875;48.436;10.298;2022-07-26T07:05:48;4.20;;;1.20;;
39140;SDS011;24875;48.436;10.298;2022-07-26T07:08:14;3.35;;;1.10;;
39140;SDS011;24875;48.436;10.298;2022-07-26T07:10:41;3.47;;;1.10;;
39140;SDS011;24875;48.436;10.298;2022-07-26T07:13:07;1.92;;;1.25;;
39140;SDS011;24875;48.436;10.298;2022-07-26T07:15:34;6.22;;;1.50;;
39140;SDS011;24875;48.436;10.298;2022-07-26T07:18:00;6.40;;;1.52;;
39140;SDS011;24875;48.436;10.298;2022-07-26T07:20:28;2.88;;;1.45;;
39140;SDS011;24875;48.436;10.298;2022-07-26T07:22:55;1.70;;;1.33;;
39140;SDS011;24875;48.436;10.298;2022-07-26T07:25:21;2.13;;;1.08;;
39140;SDS011;24875;48.436;10.298;2022-07-26T07:27:48;3.05;;;1.83;;
39140;SDS011;24875;48.436;10.298;2022-07-26T07:30:14;1.70;;;1.20;;
39140;SDS011;24875;48.436;10.298;2022-07-26T07:32:41;2.17;;;1.40;;
39140;SDS011;24875;48.436;10.298;2022-07-26T07:35:08;3.78;;;1.52;;
39140;SDS011;24875;48.436;10.298;2022-07-26T07:37:36;5.20;;;1.27;;
39140;SDS011;24875;48.436;10.298;2022-07-26T07:40:04;4.65;;;1.50;;
39140;SDS011;24875;48.436;10.298;2022-07-26T07:42:31;2.10;;;1.63;;
39140;SDS011;24875;48.436;10.298;2022-07-26T07:44:57;1.55;;;1.20;;
39140;SDS011;24875;48.436;10.298;2022-07-26T07:47:24;3.92;;;1.55;;
39140;SDS011;24875;48.436;10.298;2022-07-26T07:49:51;3.05;;;1.60;;
39140;SDS011;24875;48.436;10.298;2022-07-26T07:52:17;2.30;;;1.40;;
39140;SDS011;24875;48.436;10.298;2022-07-26T07:54:45;3.35;;;1.30;;
39140;SDS011;24875;48.436;10.298;2022-07-26T07:57:12;3.33;;;1.30;;
39140;SDS011;24875;48.436;10.298;2022-07-26T07:59:38;3.25;;;1.60;;
39140;SDS011;24875;48.436;10.298;2022-07-26T08:02:05;3.05;;;1.70;;
39140;SDS011;24875;48.436;10.298;2022-07-26T08:04:32;2.35;;;1.40;;
39140;SDS011;24875;48.436;10.298;2022-07-26T08:06:58;2.75;;;1.52;;
39140;SDS011;24875;48.436;10.298;2022-07-26T08:09:25;4.75;;;1.50;;
39140;SDS011;24875;48.436;10.298;2022-07-26T08:11:52;2.92;;;1.65;;
39140;SDS011;24875;48.436;10.298;2022-07-26T08:14:19;1.70;;;1.13;;
39140;SDS011;24875;48.436;10.298;2022-07-26T08:16:46;3.13;;;1.80;;
39140;SDS011;24875;48.436;10.298;2022-07-26T08:19:12;4.35;;;1.65;;
39140;SDS011;24875;48.436;10.298;2022-07-26T08:21:39;4.38;;;1.50;;
39140;SDS011;24875;48.436;10.298;2022-07-26T08:24:07;5.45;;;1.52;;
39140;SDS011;24875;48.436;10.298;2022-07-26T08:26:34;6.20;;;1.77;;
39140;SDS011;24875;48.436;10.298;2022-07-26T08:29:02;3.40;;;1.40;;
39140;SDS011;24875;48.436;10.298;2022-07-26T08:31:29;4.72;;;1.67;;
39140;SDS011;24875;48.436;10.298;2022-07-26T08:33:55;5.50;;;1.58;;
39140;SDS011;24875;48.436;10.298;2022-07-26T08:36:22;3.78;;;1.50;;
39140;SDS011;24875;48.436;10.298;2022-07-26T08:38:50;1.58;;;1.23;;
39140;SDS011;24875;48.436;10.298;2022-07-26T08:41:16;2.72;;;1.50;;
39140;SDS011;24875;48.436;10.298;2022-07-26T08:43:43;2.28;;;1.45;;
39140;SDS011;24875;48.436;10.298;2022-07-26T08:46:11;2.08;;;1.48;;
39140;SDS011;24875;48.436;10.298;2022-07-26T08:48:37;3.30;;;1.35;;
39140;SDS011;24875;48.436;10.298;2022-07-26T08:51:05;4.35;;;1.50;;
39140;SDS011;24875;48.436;10.298;2022-07-26T08:53:34;2.28;;;1.63;;
39140;SDS011;24875;48.436;10.298;2022-07-26T08:56:01;2.10;;;1.45;;
39140;SDS011;24875;48.436;10.298;2022-07-26T08:58:28;2.53;;;1.40;;
39140;SDS011;24875;48.436;10.298;2022-07-26T09:01:04;4.28;;;1.55;;
39140;SDS011;24875;48.436;10.298;2022-07-26T09:03:34;7.28;;;1.80;;
39140;SDS011;24875;48.436;10.298;2022-07-26T09:06:12;3.05;;;1.48;;
39140;SDS011;24875;48.436;10.298;2022-07-26T09:08:41;2.25;;;1.60;;
39140;SDS011;24875;48.436;10.298;2022-07-26T09:11:24;3.13;;;1.67;;
39140;SDS011;24875;48.436;10.298;2022-07-26T09:13:56;4.88;;;1.60;;
39140;SDS011;24875;48.436;10.298;2022-07-26T09:16:25;2.22;;;1.40;;
39140;SDS011;24875;48.436;10.298;2022-07-26T09:18:53;2.72;;;1.20;;
39140;SDS011;24875;48.436;10.298;2022-07-26T09:21:25;2.42;;;1.33;;
39140;SDS011;24875;48.436;10.298;2022-07-26T09:23:52;4.60;;;1.30;;
39140;SDS011;24875;48.436;10.298;2022-07-26T09:26:19;4.35;;;1.67;;
39140;SDS011;24875;48.436;10.298;2022-07-26T09:28:45;2.10;;;1.58;;
39140;SDS011;24875;48.436;10.298;2022-07-26T09:31:27;2.80;;;1.80;;
39140;SDS011;24875;48.436;10.298;2022-07-26T09:33:55;2.97;;;1.70;;
39140;SDS011;24875;48.436;10.298;2022-07-26T09:36:23;3.03;;;1.50;;
39140;SDS011;24875;48.436;10.298;2022-07-26T09:38:50;3.17;;;1.35;;
39140;SDS011;24875;48.436;10.298;2022-07-26T09:41:18;5.68;;;1.70;;
39140;SDS011;24875;48.436;10.298;2022-07-26T09:43:45;4.68;;;1.58;;
39140;SDS011;24875;48.436;10.298;2022-07-26T09:46:11;2.53;;;1.50;;
39140;SDS011;24875;48.436;10.298;2022-07-26T09:48:38;2.22;;;1.55;;
39140;SDS011;24875;48.436;10.298;2022-07-26T09:51:06;3.55;;;1.80;;
39140;SDS011;24875;48.436;10.298;2022-07-26T09:53:37;2.38;;;1.70;;
39140;SDS011;24875;48.436;10.298;2022-07-26T09:56:05;2.60;;;1.52;;
39140;SDS011;24875;48.436;10.298;2022-07-26T09:58:32;6.75;;;1.88;;
39140;SDS011;24875;48.436;10.298;2022-07-26T10:01:00;2.70;;;1.70;;
39140;SDS011;24875;48.436;10.298;2022-07-26T10:03:27;3.85;;;1.70;;
39140;SDS011;24875;48.436;10.298;2022-07-26T10:05:55;3.35;;;1.95;;
39140;SDS011;24875;48.436;10.298;2022-07-26T10:08:23;3.33;;;1.90;;
39140;SDS011;24875;48.436;10.298;2022-07-26T10:10:51;2.70;;;1.60;;
39140;SDS011;24875;48.436;10.298;2022-07-26T10:13:20;4.47;;;1.80;;
39140;SDS011;24875;48.436;10.298;2022-07-26T10:15:48;2.80;;;1.92;;
39140;SDS011;24875;48.436;10.298;2022-07-26T10:21:21;2.72;;;1.42;;
39140;SDS011;24875;48.436;10.298;2022-07-26T10:23:51;4.90;;;1.40;;
39140;SDS011;24875;48.436;10.298;2022-07-26T10:26:39;5.53;;;1.77;;
39140;SDS011;24875;48.436;10.298;2022-07-26T10:29:20;4.53;;;1.50;;
39140;SDS011;24875;48.436;10.298;2022-07-26T10:31:49;3.72;;;1.45;;
39140;SDS011;24875;48.436;10.298;2022-07-26T10:34:44;4.70;;;1.70;;
39140;SDS011;24875;48.436;10.298;2022-07-26T10:37:19;2.05;;;1.48;;
39140;SDS011;24875;48.436;10.298;2022-07-26T10:39:50;5.22;;;1.73;;
39140;SDS011;24875;48.436;10.298;2022-07-26T10:42:41;3.72;;;1.50;;
39140;SDS011;24875;48.436;10.298;2022-07-26T10:45:15;3.60;;;1.60;;
39140;SDS011;24875;48.436;10.298;2022-07-26T10:47:55;3.95;;;1.55;;
39140;SDS011;24875;48.436;10.298;2022-07-26T10:50:41;3.72;;;1.60;;
39140;SDS011;24875;48.436;10.298;2022-07-26T10:53:09;2.72;;;1.30;;
39140;SDS011;24875;48.436;10.298;2022-07-26T10:55:46;3.40;;;1.27;;
39140;SDS011;24875;48.436;10.298;2022-07-26T10:58:14;6.78;;;1.65;;
39140;SDS011;24875;48.436;10.298;2022-07-26T11:00:52;1.98;;;1.27;;
39140;SDS011;24875;48.436;10.298;2022-07-26T11:03:20;4.00;;;1.30;;
39140;SDS011;24875;48.436;10.298;2022-07-26T11:05:46;4.05;;;1.50;;
39140;SDS011;24875;48.436;10.298;2022-07-26T11:08:13;1.38;;;1.20;;
39140;SDS011;24875;48.436;10.298;2022-07-26T11:10:40;2.72;;;1.40;;
39140;SDS011;24875;48.436;10.298;2022-07-26T11:13:10;2.42;;;1.50;;
39140;SDS011;24875;48.436;10.298;2022-07-26T11:15:39;2.85;;;1.27;;
39140;SDS011;24875;48.436;10.298;2022-07-26T11:18:12;3.08;;;1.27;;
39140;SDS011;24875;48.436;10.298;2022-07-26T11:20:44;1.75;;;1.25;;
39140;SDS011;24875;48.436;10.298;2022-07-26T11:23:19;2.25;;;1.17;;
39140;SDS011;24875;48.436;10.298;2022-07-26T11:28:50;5.15;;;1.40;;
39140;SDS011;24875;48.436;10.298;2022-07-26T11:31:18;5.82;;;1.23;;
39140;SDS011;24875;48.436;10.298;2022-07-26T11:33:47;4.03;;;1.38;;
39140;SDS011;24875;48.436;10.298;2022-07-26T11:36:16;3.95;;;1.30;;
39140;SDS011;24875;48.436;10.298;2022-07-26T11:38:47;2.33;;;1.30;;
39140;SDS011;24875;48.436;10.298;2022-07-26T11:41:17;1.63;;;1.27;;
39140;SDS011;24875;48.436;10.298;2022-07-26T11:43:44;2.60;;;1.30;;
39140;SDS011;24875;48.436;10.298;2022-07-26T11:46:12;2.03;;;1.20;;
39140;SDS011;24875;48.436;10.298;2022-07-26T11:48:43;2.28;;;1.50;;
39140;SDS011;24875;48.436;10.298;2022-07-26T11:51:11;1.98;;;1.20;;
39140;SDS011;24875;48.436;10.298;2022-07-26T11:53:39;3.03;;;1.20;;
39140;SDS011;24875;48.436;10.298;2022-07-26T11:56:10;5.20;;;1.10;;
39140;SDS011;24875;48.436;10.298;2022-07-26T11:58:41;1.90;;;1.02;;
39140;SDS011;24875;48.436;10.298;2022-07-26T12:01:09;3.95;;;1.33;;
39140;SDS011;24875;48.436;10.298;2022-07-26T12:03:39;3.90;;;1.38;;
39140;SDS011;24875;48.436;10.298;2022-07-26T12:06:09;2.20;;;1.10;;
39140;SDS011;24875;48.436;10.298;2022-07-26T12:08:40;1.92;;;1.10;;
39140;SDS011;24875;48.436;10.298;2022-07-26T12:11:07;2.13;;;1.23;;
39140;SDS011;24875;48.436;10.298;2022-07-26T12:16:42;3.03;;;0.93;;
39140;SDS011;24875;48.436;10.298;2022-07-26T12:19:22;1.88;;;1.10;;
39140;SDS011;24875;48.436;10.298;2022-07-26T12:21:51;4.32;;;1.13;;
39140;SDS011;24875;48.436;10.298;2022-07-26T12:24:32;1.65;;;1.00;;
39140;SDS011;24875;48.436;10.298;2022-07-26T12:27:07;1.67;;;1.05;;
39140;SDS011;24875;48.436;10.298;2022-07-26T12:29:35;2.97;;;0.90;;
39140;SDS011;24875;48.436;10.298;2022-07-26T12:32:04;2.42;;;0.90;;
39140;SDS011;24875;48.436;10.298;2022-07-26T12:34:34;1.85;;;1.02;;
39140;SDS011;24875;48.436;10.298;2022-07-26T12:37:06;1.58;;;1.00;;
39140;SDS011;24875;48.436;10.298;2022-07-26T12:39:40;2.88;;;1.00;;
39140;SDS011;24875;48.436;10.298;2022-07-26T12:42:20;2.78;;;1.10;;
39140;SDS011;24875;48.436;10.298;2022-07-26T12:44:47;3.88;;;0.98;;
39140;SDS011;24875;48.436;10.298;2022-07-26T12:47:13;18.52;;;1.77;;
39140;SDS011;24875;48.436;10.298;2022-07-26T12:49:41;2.90;;;0.85;;
39140;SDS011;24875;48.436;10.298;2022-07-26T12:52:10;1.90;;;1.00;;
39140;SDS011;24875;48.436;10.298;2022-07-26T12:54:37;1.30;;;0.82;;
39140;SDS011;24875;48.436;10.298;2022-07-26T12:57:04;2.85;;;1.00;;
39140;SDS011;24875;48.436;10.298;2022-07-26T12:59:30;2.97;;;0.80;;
39140;SDS011;24875;48.436;10.298;2022-07-26T13:01:57;2.15;;;0.98;;
39140;SDS011;24875;48.436;10.298;2022-07-26T13:04:23;2.92;;;1.10;;
39140;SDS011;24875;48.436;10.298;2022-07-26T13:06:51;2.78;;;0.98;;
39140;SDS011;24875;48.436;10.298;2022-07-26T13:09:17;2.38;;;1.02;;
39140;SDS011;24875;48.436;10.298;2022-07-26T13:11:44;10.10;;;1.13;;
39140;SDS011;24875;48.436;10.298;2022-07-26T13:14:10;2.53;;;0.98;;
39140;SDS011;24875;48.436;10.298;2022-07-26T13:16:37;0.93;;;0.80;;
39140;SDS011;24875;48.436;10.298;2022-07-26T13:19:03;1.30;;;0.98;;
39140;SDS011;24875;48.436;10.298;2022-07-26T13:21:30;3.75;;;0.80;;
39140;SDS011;24875;48.436;10.298;2022-07-26T13:23:58;4.20;;;0.93;;
39140;SDS011;24875;48.436;10.298;2022-07-26T13:26:25;5.05;;;1.13;;
39140;SDS011;24875;48.436;10.298;2022-07-26T13:28:52;2.08;;;0.90;;
39140;SDS011;24875;48.436;10.298;2022-07-26T13:31:18;1.75;;;0.80;;
39140;SDS011;24875;48.436;10.298;2022-07-26T13:33:45;4.95;;;1.05;;
39140;SDS011;24875;48.436;10.298;2022-07-26T13:36:12;0.70;;;0.70;;
39140;SDS011;24875;48.436;10.298;2022-07-26T13:38:38;2.63;;;0.93;;
39140;SDS011;24875;48.436;10.298;2022-07-26T13:41:08;3.45;;;0.90;;
39140;SDS011;24875;48.436;10.298;2022-07-26T13:43:34;1.88;;;0.70;;
39140;SDS011;24875;48.436;10.298;2022-07-26T13:46:01;5.20;;;1.00;;
39140;SDS011;24875;48.436;10.298;2022-07-26T13:48:28;5.07;;;1.20;;
39140;SDS011;24875;48.436;10.298;2022-07-26T13:50:54;1.92;;;0.80;;
39140;SDS011;24875;48.436;10.298;2022-07-26T13:53:21;5.10;;;0.95;;
39140;SDS011;24875;48.436;10.298;2022-07-26T13:55:48;3.42;;;1.00;;
39140;SDS011;24875;48.436;10.298;2022-07-26T13:58:16;1.60;;;0.82;;
39140;SDS011;24875;48.436;10.298;2022-07-26T14:00:45;2.75;;;0.90;;
39140;SDS011;24875;48.436;10.298;2022-07-26T14:03:12;2.65;;;0.80;;
39140;SDS011;24875;48.436;10.298;2022-07-26T14:05:38;1.85;;;0.65;;
39140;SDS011;24875;48.436;10.298;2022-07-26T14:08:05;1.65;;;0.85;;
39140;SDS011;24875;48.436;10.298;2022-07-26T14:10:32;3.13;;;1.00;;
39140;SDS011;24875;48.436;10.298;2022-07-26T14:13:02;1.50;;;1.00;;
39140;SDS011;24875;48.436;10.298;2022-07-26T14:15:30;2.13;;;1.10;;
39140;SDS011;24875;48.436;10.298;2022-07-26T14:17:56;5.85;;;1.00;;
39140;SDS011;24875;48.436;10.298;2022-07-26T14:20:23;3.63;;;1.23;;
39140;SDS011;24875;48.436;10.298;2022-07-26T14:22:50;1.08;;;0.82;;
39140;SDS011;24875;48.436;10.298;2022-07-26T14:25:17;1.20;;;0.80;;
39140;SDS011;24875;48.436;10.298;2022-07-26T14:27:44;2.15;;;0.80;;
39140;SDS011;24875;48.436;10.298;2022-07-26T14:30:11;1.60;;;0.60;;
39140;SDS011;24875;48.436;10.298;2022-07-26T14:32:39;2.53;;;0.77;;
39140;SDS011;24875;48.436;10.298;2022-07-26T14:35:06;2.78;;;0.70;;
39140;SDS011;24875;48.436;10.298;2022-07-26T14:37:33;0.70;;;0.70;;
39140;SDS011;24875;48.436;10.298;2022-07-26T14:40:00;1.10;;;0.60;;
39140;SDS011;24875;48.436;10.298;2022-07-26T14:42:27;1.45;;;0.70;;
39140;SDS011;24875;48.436;10.298;2022-07-26T14:44:54;2.05;;;1.08;;
39140;SDS011;24875;48.436;10.298;2022-07-26T14:47:20;1.75;;;0.70;;